This is the latest recevied weather packets stored in our database for station/object DL2BWO-13. If no packets are shown the sender has not sent any weather packets the latest 10 day(s).
| Time | Temp. | Humidity | Pressure | Rain* | Wind** | Luminosity | Snow |
|---|---|---|---|---|---|---|---|
| 1777885643 | 23.33° C | 62% | 751.9 hPa | 0 mm | - | - | - |
| 1777884707 | 22.78° C | 62% | 751.3 hPa | 0 mm | - | - | - |
| 1777883771 | 23.89° C | 62% | 752.2 hPa | 0 mm | - | - | - |
| 1777881899 | 22.78° C | 63% | 750.9 hPa | 0 mm | - | - | - |
| 1777880963 | 22.22° C | 65% | 750.8 hPa | 0 mm | - | - | - |
| 1777880027 | 21.11° C | 68% | 749.4 hPa | 0 mm | - | - | - |
| 1777879091 | 20.56° C | 71% | 748.7 hPa | 0 mm | - | - | - |
| 1777878155 | 20° C | 71% | 748.1 hPa | 0 mm | - | - | - |
| 1777877219 | 20° C | 72% | 747.8 hPa | 0 mm | - | - | - |
| 1777876283 | 20° C | 67% | 747.7 hPa | 0 mm | - | - | - |
| 1777875347 | 19.44° C | 68% | 747.5 hPa | 0 mm | - | - | - |
| 1777874411 | 18.89° C | 69% | 746.5 hPa | 0 mm | - | - | - |
| 1777873475 | 17.78° C | 66% | 745.4 hPa | 0 mm | - | - | - |
| 1777870667 | 17.22° C | 63% | 744.7 hPa | 0 mm | - | - | - |
| 1777869731 | 17.22° C | 63% | 744.6 hPa | 0 mm | - | - | - |
| 1777868795 | 16.67° C | 62% | 744.4 hPa | 0 mm | - | - | - |
| 1777867859 | 16.67° C | 61% | 744.4 hPa | 0 mm | - | - | - |
| 1777866923 | 16.67° C | 62% | 744.3 hPa | 0 mm | - | - | - |
| 1777865987 | 17.22° C | 60% | 744.6 hPa | 0 mm | - | - | - |
| 1777865051 | 17.22° C | 58% | 744.9 hPa | 0 mm | - | - | - |
| 1777864116 | 17.22° C | 57% | 744.8 hPa | 0 mm | - | - | - |
| 1777863180 | 17.22° C | 56% | 744.8 hPa | 0 mm | - | - | - |
| 1777862244 | 17.22° C | 55% | 745.1 hPa | 0 mm | - | - | - |
| 1777861308 | 17.78° C | 55% | 745.3 hPa | 0 mm | - | - | - |
| 1777860372 | 17.78° C | 54% | 745.4 hPa | 0 mm | - | - | - |
* Rain latest hour (hover to see other rain measurements)
** Current wind speed in m/s (hover to see current wind gust speed)